Time;durP1;ratioP1;P1;durP2;ratioP2;P2;SDS_P1;SDS_P2;PMS_P1;PMS_P2;Temp;Humidity;BMP_temperature;BMP_pressure;BME280_temperature;BME280_humidity;BME280_pressure;Samples;Min_cycle;Max_cycle;Signal;HPM_P1;HPM_P2
2022/03/23 00:01:19;;;;;;;14.20;10.23;;;;;;;12.90;51.31;101709.41;5062786;28;20122;-90
2022/03/23 00:03:46;;;;;;;19.08;10.50;;;;;;;12.83;51.56;101705.41;5065423;28;20505;-90
2022/03/23 00:06:13;;;;;;;15.00;10.07;;;;;;;12.82;51.81;101712.47;5072397;28;20386;-90
2022/03/23 00:08:38;;;;;;;13.02;9.63;;;;;;;12.77;52.13;101708.41;5062531;28;20035;-90
2022/03/23 00:11:04;;;;;;;17.15;10.02;;;;;;;12.67;52.37;101714.19;5053698;28;20044;-90
2022/03/23 00:13:30;;;;;;;14.30;10.10;;;;;;;12.63;52.45;101714.44;5071874;28;20071;-90
2022/03/23 00:15:55;;;;;;;16.13;10.05;;;;;;;12.55;52.65;101701.69;5073452;28;20078;-90
2022/03/23 00:18:21;;;;;;;15.98;9.98;;;;;;;12.55;52.66;101712.22;5056789;28;20029;-90
2022/03/23 00:20:46;;;;;;;17.05;10.93;;;;;;;12.48;52.75;101714.38;5053800;28;20521;-89
2022/03/23 00:23:13;;;;;;;21.48;13.20;;;;;;;12.44;52.68;101719.88;5068592;28;20021;-90
2022/03/23 00:25:38;;;;;;;17.33;11.25;;;;;;;12.38;52.81;101723.72;5068315;28;20020;-90
2022/03/23 00:28:04;;;;;;;17.92;11.38;;;;;;;12.38;52.97;101714.94;5073248;28;20023;-90
2022/03/23 00:30:32;;;;;;;19.75;11.77;;;;;;;12.43;52.58;101724.28;5060154;28;20075;-90
2022/03/23 00:32:58;;;;;;;21.80;11.25;;;;;;;12.47;52.39;101723.19;5066458;28;20012;-90
2022/03/23 00:35:23;;;;;;;16.50;11.50;;;;;;;12.40;52.48;101720.97;5062369;28;20036;-90
2022/03/23 00:37:50;;;;;;;19.40;11.57;;;;;;;12.48;52.34;101721.44;5053456;28;20028;-90
2022/03/23 00:40:16;;;;;;;23.42;12.13;;;;;;;12.50;51.83;101719.56;5061751;28;20414;-90
2022/03/23 00:42:42;;;;;;;21.83;13.43;;;;;;;12.57;51.80;101714.78;5062506;28;20028;-90
2022/03/23 00:45:08;;;;;;;19.60;12.88;;;;;;;12.76;50.97;101719.91;5052723;28;20040;-90
2022/03/23 00:47:35;;;;;;;21.60;13.38;;;;;;;12.81;50.76;101728.38;5057473;28;20074;-91
2022/03/23 00:50:01;;;;;;;18.88;12.43;;;;;;;12.97;50.67;101728.34;5070630;28;20120;-90
2022/03/23 00:52:27;;;;;;;24.55;12.88;;;;;;;12.83;50.96;101731.78;5068117;28;20024;-90
2022/03/23 00:54:52;;;;;;;17.85;12.13;;;;;;;13.10;50.05;101724.94;5063465;28;20040;-91
2022/03/23 00:57:17;;;;;;;17.92;12.07;;;;;;;13.29;49.98;101729.16;5072509;28;20123;-91
2022/03/23 00:59:43;;;;;;;15.13;10.88;;;;;;;13.13;50.69;101734.47;5068043;28;20116;-90
2022/03/23 01:02:09;;;;;;;18.92;12.65;;;;;;;13.11;50.52;101731.03;5056208;28;20059;-90
2022/03/23 01:04:35;;;;;;;17.73;11.27;;;;;;;12.93;50.85;101727.66;5053375;28;20407;-90
2022/03/23 01:07:00;;;;;;;17.27;11.10;;;;;;;12.81;51.36;101721.31;5072226;28;20016;-90
2022/03/23 01:09:25;;;;;;;21.40;12.60;;;;;;;12.70;50.91;101721.94;5072300;28;20024;-90
2022/03/23 01:11:52;;;;;;;16.27;11.50;;;;;;;12.72;51.52;101728.88;5054162;28;20032;-89
2022/03/23 01:14:18;;;;;;;16.95;11.30;;;;;;;12.63;51.84;101730.25;5053103;28;20021;-89
2022/03/23 01:16:45;;;;;;;19.60;11.35;;;;;;;12.47;51.97;101728.47;5069489;28;20066;-90
2022/03/23 01:19:11;;;;;;;18.65;12.10;;;;;;;12.38;52.25;101736.00;5063130;28;20060;-89
2022/03/23 01:21:37;;;;;;;16.67;12.25;;;;;;;12.26;52.55;101738.41;5067304;28;20094;-90
2022/03/23 01:24:02;;;;;;;19.55;11.70;;;;;;;12.16;52.66;101733.69;5052570;28;20052;-89
2022/03/23 01:26:28;;;;;;;16.10;11.35;;;;;;;12.08;52.85;101737.59;5055566;28;20068;-89
2022/03/23 01:28:54;;;;;;;17.10;11.63;;;;;;;12.01;53.20;101738.00;5072262;28;20032;-90
2022/03/23 01:31:19;;;;;;;21.25;12.20;;;;;;;12.20;52.69;101743.97;5070583;28;20437;-89
2022/03/23 01:33:45;;;;;;;18.88;12.02;;;;;;;12.18;52.72;101727.41;5052621;28;20186;-91
2022/03/23 01:36:10;;;;;;;19.23;12.35;;;;;;;12.08;53.10;101734.09;5052801;28;20025;-90
2022/03/23 01:38:37;;;;;;;16.48;12.23;;;;;;;11.86;53.67;101729.06;5056201;28;20025;-89
2022/03/23 01:41:03;;;;;;;16.48;11.57;;;;;;;12.16;52.50;101728.41;5052552;28;20025;-90
2022/03/23 01:43:29;;;;;;;19.35;14.48;;;;;;;12.15;52.88;101722.31;5061986;28;20533;-89
2022/03/23 01:45:54;;;;;;;21.00;12.98;;;;;;;11.98;53.29;101719.72;5052943;28;20033;-89
2022/03/23 01:48:20;;;;;;;17.75;12.95;;;;;;;12.08;52.91;101721.81;5052670;28;20037;-90
2022/03/23 01:50:45;;;;;;;17.08;12.43;;;;;;;12.04;52.85;101712.34;5056988;28;20024;-91
2022/03/23 01:53:11;;;;;;;21.35;14.38;;;;;;;12.04;53.01;101722.03;5070518;28;20043;-90
2022/03/23 01:55:36;;;;;;;20.77;13.23;;;;;;;11.89;53.35;101716.66;5072219;28;20051;-90
2022/03/23 01:58:02;;;;;;;21.33;13.57;;;;;;;11.97;53.03;101710.13;5061023;28;20033;-91
2022/03/23 02:00:28;;;;;;;21.23;13.95;;;;;;;11.98;52.84;101717.09;5051997;28;20017;-90
2022/03/23 02:02:54;;;;;;;21.00;14.43;;;;;;;11.84;53.18;101710.72;5070120;28;20040;-90
2022/03/23 02:05:20;;;;;;;21.65;14.02;;;;;;;11.85;53.29;101712.44;5071606;28;20027;-90
2022/03/23 02:07:45;;;;;;;22.10;14.05;;;;;;;11.86;53.10;101713.28;5054521;28;20021;-90
2022/03/23 02:10:11;;;;;;;22.83;14.30;;;;;;;11.86;52.91;101711.50;5051568;28;20025;-90
2022/03/23 02:12:38;;;;;;;19.60;13.00;;;;;;;11.81;53.34;101705.66;5055609;28;20036;-90
2022/03/23 02:15:17;;;;;;;19.50;13.30;;;;;;;11.88;53.16;101703.53;5066062;28;20558;-91
2022/03/23 02:17:44;;;;;;;21.33;13.93;;;;;;;11.73;53.46;101702.56;5061225;28;20033;-91
2022/03/23 02:20:11;;;;;;;22.48;15.23;;;;;;;11.62;53.37;101697.84;5050725;28;20498;-91
2022/03/23 02:22:36;;;;;;;25.05;14.18;;;;;;;11.63;53.86;101701.31;5068076;28;20115;-91
2022/03/23 02:25:03;;;;;;;19.80;12.98;;;;;;;11.60;53.81;101706.75;5072305;28;20047;-91
2022/03/23 02:27:29;;;;;;;22.02;13.70;;;;;;;11.60;53.87;101706.75;5057826;28;20076;-90
2022/03/23 02:29:54;;;;;;;19.40;13.60;;;;;;;11.58;53.62;101698.09;5056166;28;20037;-91
2022/03/23 02:32:20;;;;;;;23.35;13.70;;;;;;;11.54;53.53;101707.06;5080873;28;20078;-89
2022/03/23 02:34:45;;;;;;;20.30;13.23;;;;;;;11.51;53.94;101713.31;5087850;28;20050;-90
2022/03/23 02:37:11;;;;;;;21.13;13.98;;;;;;;11.42;53.90;101701.50;5069224;28;20029;-91
2022/03/23 02:39:36;;;;;;;19.20;12.75;;;;;;;11.34;54.02;101706.31;5057980;28;20040;-91
2022/03/23 02:42:02;;;;;;;18.65;12.63;;;;;;;11.31;53.88;101706.44;5061953;28;20479;-91
2022/03/23 02:44:29;;;;;;;20.65;12.73;;;;;;;11.30;54.00;101707.38;5063831;28;20029;-91
2022/03/23 02:46:55;;;;;;;23.73;12.98;;;;;;;11.30;54.37;101708.22;5051630;28;20029;-92
2022/03/23 02:49:21;;;;;;;22.10;13.93;;;;;;;11.21;54.36;101718.34;5051505;28;20028;-91
2022/03/23 02:51:48;;;;;;;20.60;12.95;;;;;;;11.25;54.34;101722.53;5058406;28;20501;-91
2022/03/23 03:03:01;;;;;;;21.98;14.85;;;;;;;11.18;54.12;101713.25;5064441;28;20146;-91
2022/03/23 03:05:26;;;;;;;22.40;14.27;;;;;;;11.21;54.11;101713.09;5062438;28;20049;-91
2022/03/23 03:10:35;;;;;;;22.17;13.50;;;;;;;11.07;54.71;101712.00;5071420;28;20083;-91
2022/03/23 03:13:01;;;;;;;22.70;13.98;;;;;;;11.09;54.56;101717.19;5055064;28;20032;-91
2022/03/23 03:15:27;;;;;;;17.48;12.70;;;;;;;11.09;54.53;101717.19;5054594;28;20360;-91
2022/03/23 03:17:57;;;;;;;20.60;13.05;;;;;;;11.18;54.24;101710.63;5070392;28;20036;-91
2022/03/23 03:20:23;;;;;;;19.90;12.63;;;;;;;11.02;54.75;101707.88;5074299;28;20024;-91
2022/03/23 03:22:48;;;;;;;20.10;12.75;;;;;;;10.93;55.18;101706.56;5073559;28;20032;-91
2022/03/23 03:25:16;;;;;;;21.55;13.52;;;;;;;10.86;55.07;101710.41;5074733;28;20395;-91
2022/03/23 03:27:42;;;;;;;18.73;12.57;;;;;;;10.89;55.03;101712.91;5060896;28;20083;-91
2022/03/23 03:30:11;;;;;;;20.10;13.43;;;;;;;10.57;56.09;101706.56;5074343;28;20107;-90
2022/03/23 03:32:36;;;;;;;18.25;12.00;;;;;;;10.47;56.28;101719.28;5060115;28;20036;-91
2022/03/23 03:35:02;;;;;;;20.92;13.48;;;;;;;10.38;56.52;101714.44;5054121;28;20020;-91
2022/03/23 03:37:27;;;;;;;21.08;14.02;;;;;;;10.38;56.76;101717.91;5062593;28;20108;-91
2022/03/23 03:39:52;;;;;;;22.60;14.25;;;;;;;10.41;57.03;101716.94;5062695;28;20542;-90
2022/03/23 03:42:18;;;;;;;21.15;14.18;;;;;;;10.38;56.89;101717.06;5054930;28;20025;-91
2022/03/23 03:44:44;;;;;;;21.58;15.10;;;;;;;10.41;56.74;101716.94;5058089;28;20079;-91
2022/03/23 03:47:10;;;;;;;27.55;15.23;;;;;;;10.40;56.58;101713.44;5053897;28;20087;-91
2022/03/23 03:49:36;;;;;;;22.23;15.75;;;;;;;10.64;55.93;101724.59;5058955;28;20048;-91
2022/03/23 03:52:02;;;;;;;22.98;13.63;;;;;;;10.43;56.54;101721.19;5060619;28;20063;-91
2022/03/23 03:54:27;;;;;;;26.27;15.38;;;;;;;10.42;56.63;101716.00;5058674;28;20470;-91
2022/03/23 03:56:52;;;;;;;20.95;14.07;;;;;;;10.41;55.85;101714.31;5073864;28;20017;-91
2022/03/23 03:59:18;;;;;;;25.23;14.77;;;;;;;10.34;56.51;101728.63;5073206;28;20025;-91
2022/03/23 04:01:43;;;;;;;21.83;14.32;;;;;;;10.34;56.57;101726.84;5062959;28;20016;-91
2022/03/23 04:04:08;;;;;;;27.63;15.38;;;;;;;10.36;56.73;101725.00;5064282;28;20025;-91
2022/03/23 04:06:34;;;;;;;27.67;16.42;;;;;;;10.41;56.74;101730.91;5069022;28;20488;-91
2022/03/23 04:08:59;;;;;;;26.30;14.98;;;;;;;10.42;56.75;101726.50;5074181;28;20376;-91
2022/03/23 04:11:25;;;;;;;24.08;15.77;;;;;;;10.42;56.67;101726.50;5072627;28;20036;-91
2022/03/23 04:13:50;;;;;;;23.83;15.23;;;;;;;10.42;56.21;101726.50;5073059;28;20070;-90
2022/03/23 04:16:16;;;;;;;24.60;14.40;;;;;;;10.40;56.66;101728.34;5062436;28;20057;-91
2022/03/23 04:18:41;;;;;;;27.88;16.13;;;;;;;10.37;56.88;101728.47;5053730;28;20036;-90
2022/03/23 04:21:07;;;;;;;24.63;15.00;;;;;;;10.36;56.74;101737.28;5063029;28;20152;-91
2022/03/23 04:23:33;;;;;;;21.65;14.68;;;;;;;10.30;56.64;101731.38;5073453;28;20103;-91
2022/03/23 04:25:59;;;;;;;22.95;16.17;;;;;;;10.29;57.11;101734.91;5064454;28;20025;-91
2022/03/23 04:28:24;;;;;;;26.63;16.33;;;;;;;10.31;56.78;101735.72;5061972;28;20043;-91
2022/03/23 04:30:50;;;;;;;24.45;15.30;;;;;;;10.31;57.08;101740.13;5060339;28;20419;-91
2022/03/23 04:33:15;;;;;;;26.13;16.60;;;;;;;10.23;57.26;101737.81;5068558;28;20025;-91
2022/03/23 04:35:41;;;;;;;25.33;16.05;;;;;;;10.25;56.85;101741.22;5054328;28;20467;-91
2022/03/23 04:38:06;;;;;;;24.42;15.88;;;;;;;10.26;57.46;101748.16;5053609;28;20036;-91
2022/03/23 04:40:32;;;;;;;23.15;15.50;;;;;;;10.23;57.18;101736.94;5055311;28;20120;-91
2022/03/23 04:42:58;;;;;;;23.83;14.70;;;;;;;10.18;56.91;101744.19;5053032;28;20108;-91
2022/03/23 04:45:24;;;;;;;25.02;16.20;;;;;;;10.10;57.92;101741.91;5052874;28;20029;-91
2022/03/23 04:47:50;;;;;;;27.00;17.13;;;;;;;10.10;57.44;101747.16;5061458;28;20123;-91
2022/03/23 04:50:16;;;;;;;27.48;16.30;;;;;;;10.01;57.21;101740.56;5072693;28;20040;-91
2022/03/23 04:52:43;;;;;;;27.33;17.38;;;;;;;10.03;57.97;101740.47;5067959;28;20035;-91
2022/03/23 04:55:10;;;;;;;23.25;16.75;;;;;;;9.98;57.75;101743.31;5058805;28;20063;-91
2022/03/23 04:57:36;;;;;;;24.05;15.85;;;;;;;9.93;58.05;101751.38;5065714;28;20382;-90
2022/03/23 05:00:03;;;;;;;25.38;18.00;;;;;;;9.92;57.84;101743.56;5052541;28;20047;-91
2022/03/23 05:02:28;;;;;;;25.92;16.98;;;;;;;9.89;57.94;101744.56;5071410;28;20031;-92
2022/03/23 05:04:53;;;;;;;24.52;15.73;;;;;;;9.84;57.53;101743.91;5072454;28;20474;-91
2022/03/23 05:07:19;;;;;;;29.48;16.40;;;;;;;9.83;58.20;101744.81;5057310;28;20386;-91
2022/03/23 05:09:44;;;;;;;29.77;16.92;;;;;;;9.86;57.57;101738.59;5051937;28;20081;-91
2022/03/23 05:12:10;;;;;;;25.50;17.40;;;;;;;9.81;58.24;101738.78;5057727;28;20065;-90
2022/03/23 05:14:36;;;;;;;26.20;17.92;;;;;;;9.82;58.30;101743.13;5052186;28;20041;-89
2022/03/23 05:17:02;;;;;;;27.08;17.95;;;;;;;9.82;58.17;101742.28;5064007;28;20028;-89
2022/03/23 05:19:28;;;;;;;30.50;17.67;;;;;;;9.77;58.43;101749.47;5063236;28;20044;-89
2022/03/23 05:21:53;;;;;;;31.05;17.85;;;;;;;9.81;58.34;101749.28;5072173;28;20411;-89
2022/03/23 05:24:18;;;;;;;34.92;18.50;;;;;;;9.75;57.91;101744.31;5061092;28;20028;-89
2022/03/23 05:26:44;;;;;;;28.70;17.52;;;;;;;9.69;57.64;101747.19;5053474;28;20028;-89
2022/03/23 05:29:10;;;;;;;28.90;18.60;;;;;;;9.64;58.04;101754.41;5067012;28;20044;-90
2022/03/23 05:31:35;;;;;;;29.80;16.77;;;;;;;9.57;57.91;101751.19;5071969;28;20024;-88
2022/03/23 05:34:01;;;;;;;29.95;19.08;;;;;;;9.57;58.05;101758.19;5072135;28;20101;-88
2022/03/23 05:36:26;;;;;;;27.30;17.75;;;;;;;9.52;58.70;101758.41;5070734;28;20024;-87
2022/03/23 05:38:51;;;;;;;27.20;17.50;;;;;;;9.52;58.18;101768.91;5052036;28;20072;-88
2022/03/23 05:41:17;;;;;;;26.67;16.52;;;;;;;9.47;58.70;101766.44;5051913;28;20021;-90
2022/03/23 05:43:42;;;;;;;31.23;16.50;;;;;;;9.47;59.29;101763.81;5070916;28;20028;-88
2022/03/23 05:46:08;;;;;;;31.10;18.83;;;;;;;9.50;58.99;101768.97;5072214;28;20052;-90
2022/03/23 05:48:33;;;;;;;32.25;18.70;;;;;;;9.52;59.06;101769.75;5053345;28;20036;-90
2022/03/23 05:50:59;;;;;;;33.10;19.55;;;;;;;9.61;59.08;101767.66;5061279;28;20131;-90
2022/03/23 05:53:24;;;;;;;27.73;17.70;;;;;;;9.69;58.87;101774.25;5066462;28;20032;-88
2022/03/23 05:55:50;;;;;;;29.35;18.92;;;;;;;9.68;58.82;101769.94;5071846;28;20024;-88
2022/03/23 05:58:17;;;;;;;27.27;16.90;;;;;;;9.69;58.76;101776.03;5056424;28;20029;-88
2022/03/23 06:00:43;;;;;;;25.58;16.23;;;;;;;9.66;58.38;101773.56;5051774;28;20597;-88
2022/03/23 06:03:08;;;;;;;26.52;16.90;;;;;;;9.64;58.77;101781.47;5055495;28;20055;-88
2022/03/23 06:05:33;;;;;;;27.33;16.58;;;;;;;9.62;58.42;101772.84;5051446;28;20036;-88
2022/03/23 06:07:59;;;;;;;29.35;17.85;;;;;;;9.60;58.71;101779.91;5064350;28;20031;-88
2022/03/23 06:10:25;;;;;;;29.13;17.50;;;;;;;9.62;58.74;101777.22;5071636;28;20027;-88
2022/03/23 06:12:50;;;;;;;25.67;16.13;;;;;;;9.62;58.89;101782.47;5060299;28;20035;-88
2022/03/23 06:15:15;;;;;;;29.38;16.90;;;;;;;9.65;58.60;101782.34;5060584;28;20029;-88
2022/03/23 06:17:41;;;;;;;29.55;18.17;;;;;;;9.63;58.65;101779.75;5063305;28;20513;-88
2022/03/23 06:20:07;;;;;;;30.90;16.83;;;;;;;9.72;59.07;101783.78;5071849;28;20478;-90
2022/03/23 06:22:33;;;;;;;28.95;17.58;;;;;;;9.77;58.46;101781.81;5072316;28;20470;-90
2022/03/23 06:24:58;;;;;;;23.73;16.85;;;;;;;9.86;58.20;101778.81;5070934;28;20081;-88
2022/03/23 06:27:25;;;;;;;29.38;18.02;;;;;;;9.90;58.56;101777.75;5071851;28;20028;-89
2022/03/23 06:29:50;;;;;;;28.35;18.00;;;;;;;9.92;58.45;101781.16;5079732;28;20051;-88
2022/03/23 06:32:17;;;;;;;28.20;17.10;;;;;;;10.01;58.30;101789.53;5080566;28;20025;-88
2022/03/23 06:34:42;;;;;;;25.88;17.00;;;;;;;10.03;58.27;101785.06;5073724;28;20535;-88
2022/03/23 06:37:08;;;;;;;29.23;17.00;;;;;;;10.07;58.19;101794.53;5066957;28;20025;-88
2022/03/23 06:39:33;;;;;;;27.80;17.30;;;;;;;10.11;57.92;101796.09;5054565;28;20362;-88
2022/03/23 06:41:59;;;;;;;30.67;19.23;;;;;;;10.17;58.20;101801.09;5085935;28;20054;-87
2022/03/23 06:44:24;;;;;;;25.88;18.25;;;;;;;10.28;58.25;101795.34;5077209;28;20406;-88
2022/03/23 06:46:50;;;;;;;26.70;17.65;;;;;;;10.37;57.91;101799.38;5071992;28;20029;-88
2022/03/23 06:49:16;;;;;;;29.80;17.33;;;;;;;10.41;57.28;101804.44;5095674;28;20039;-87
2022/03/23 06:51:42;;;;;;;30.52;18.23;;;;;;;10.50;57.25;101803.16;5087368;28;20071;-88
2022/03/23 06:54:07;;;;;;;30.90;18.88;;;;;;;10.60;57.47;101809.69;5080299;28;20016;-88
2022/03/23 06:56:32;;;;;;;28.38;18.52;;;;;;;10.65;56.90;101807.72;5087375;28;20052;-88
2022/03/23 06:58:58;;;;;;;26.77;18.40;;;;;;;10.82;56.83;101803.44;5077392;28;20032;-88
2022/03/23 07:01:24;;;;;;;29.63;18.42;;;;;;;10.90;56.88;101811.84;5077705;28;20024;-88
2022/03/23 07:03:49;;;;;;;27.10;18.05;;;;;;;11.04;56.13;101809.41;5064584;28;20462;-88
2022/03/23 07:06:16;;;;;;;33.42;18.83;;;;;;;11.16;55.76;101807.97;5080205;28;20078;-87
2022/03/23 07:11:26;;;;;;;28.02;16.60;;;;;;;11.55;54.71;101811.34;5071845;28;20084;-87
2022/03/23 07:13:51;;;;;;;26.50;18.10;;;;;;;11.73;54.57;101828.88;5075030;28;20033;-87
2022/03/23 07:16:17;;;;;;;26.33;17.15;;;;;;;11.72;53.71;101832.41;5080115;28;20024;-86
2022/03/23 07:18:42;;;;;;;30.75;19.23;;;;;;;11.98;53.12;101825.00;5105302;28;20020;-88
2022/03/23 07:21:07;;;;;;;26.40;16.73;;;;;;;12.10;53.17;101838.41;5089347;28;20036;-89
2022/03/23 07:23:34;;;;;;;31.40;17.20;;;;;;;12.38;52.84;101838.72;5100843;28;20051;-89
2022/03/23 07:26:00;;;;;;;23.77;17.10;;;;;;;12.57;52.76;101842.09;5085486;28;20068;-94
2022/03/23 07:28:26;;;;;;;26.63;17.23;;;;;;;12.68;52.75;101845.00;5090579;28;20101;-87
2022/03/23 07:30:51;;;;;;;30.15;17.30;;;;;;;12.90;52.38;101844.69;5067989;28;20078;-87
2022/03/23 07:33:17;;;;;;;30.70;18.75;;;;;;;13.40;52.11;101842.00;5075714;28;20038;-87
2022/03/23 07:35:42;;;;;;;24.13;16.63;;;;;;;14.13;50.47;101844.75;5081276;28;20416;-86
2022/03/23 07:38:07;;;;;;;25.80;16.98;;;;;;;14.84;49.22;101843.09;5074137;28;20356;-87
2022/03/23 07:40:33;;;;;;;25.13;17.08;;;;;;;15.33;47.84;101850.53;5073305;28;20027;-88
2022/03/23 07:42:59;;;;;;;28.00;17.30;;;;;;;15.45;47.02;101849.72;5090624;28;20028;-88
2022/03/23 07:45:24;;;;;;;23.58;15.73;;;;;;;15.67;47.38;101861.53;5082753;28;20548;-88
2022/03/23 07:47:50;;;;;;;25.60;17.40;;;;;;;15.97;46.93;101861.31;5074363;28;20070;-93
2022/03/23 07:50:15;;;;;;;20.98;15.57;;;;;;;16.38;45.88;101862.09;5067717;28;20033;-88
2022/03/23 07:52:41;;;;;;;21.88;15.07;;;;;;;16.80;44.72;101865.34;5073675;28;20022;-88
2022/03/23 07:55:07;;;;;;;22.13;16.00;;;;;;;17.24;44.04;101871.94;5071493;28;20099;-90
2022/03/23 07:57:32;;;;;;;23.45;16.13;;;;;;;17.82;42.79;101872.91;5073655;28;20092;-93
2022/03/23 07:59:57;;;;;;;22.80;15.65;;;;;;;18.30;41.68;101871.97;5067370;28;20082;-91
2022/03/23 08:02:24;;;;;;;24.85;16.27;;;;;;;19.14;40.29;101874.28;5054966;28;20033;-93
2022/03/23 08:04:50;;;;;;;27.48;17.23;;;;;;;19.54;37.27;101876.34;5055269;28;20520;-93
2022/03/23 08:07:16;;;;;;;21.13;15.75;;;;;;;20.17;37.23;101874.59;5059937;28;20421;-92
2022/03/23 08:09:41;;;;;;;22.20;15.52;;;;;;;20.54;36.65;101874.09;5051041;28;20029;-91
2022/03/23 08:12:06;;;;;;;23.83;17.17;;;;;;;21.15;35.53;101883.03;5072939;28;20028;-91
2022/03/23 08:14:32;;;;;;;23.48;16.05;;;;;;;21.74;34.96;101882.13;5072668;28;20505;-93
2022/03/23 08:16:57;;;;;;;25.08;15.80;;;;;;;22.33;34.18;101882.03;5073423;28;20383;-91
2022/03/23 08:19:23;;;;;;;20.88;15.88;;;;;;;22.78;32.98;101878.63;5079689;28;20031;-94
2022/03/23 08:21:50;;;;;;;24.48;16.27;;;;;;;23.32;32.80;101874.25;5074178;28;20031;-92
2022/03/23 08:24:16;;;;;;;28.60;16.65;;;;;;;23.59;31.98;101867.13;5074528;28;20036;-93
2022/03/23 08:26:41;;;;;;;22.20;15.88;;;;;;;23.99;31.72;101867.63;5073051;28;20395;-91
2022/03/23 08:29:07;;;;;;;23.75;15.63;;;;;;;24.37;31.41;101869.06;5072075;28;20028;-93
2022/03/23 08:31:33;;;;;;;20.92;14.20;;;;;;;24.91;31.02;101876.88;5073006;28;20109;-91
2022/03/23 08:33:58;;;;;;;24.77;15.25;;;;;;;25.46;30.46;101870.13;5071677;28;20502;-89
2022/03/23 08:36:24;;;;;;;19.05;14.40;;;;;;;25.64;29.46;101875.34;5070416;28;20036;-90
2022/03/23 08:38:49;;;;;;;22.70;14.55;;;;;;;26.15;29.11;101867.94;5051594;28;20033;-92
2022/03/23 08:41:14;;;;;;;21.58;14.20;;;;;;;26.23;28.97;101877.84;5053291;28;20033;-92
2022/03/23 08:43:41;;;;;;;27.85;13.85;;;;;;;26.55;28.59;101881.44;5060313;28;20123;-92
2022/03/23 08:46:07;;;;;;;20.73;13.60;;;;;;;26.54;28.24;101887.84;5062966;28;20486;-92
2022/03/23 08:48:34;;;;;;;18.92;13.85;;;;;;;26.80;27.15;101882.22;5073116;28;20032;-92
2022/03/23 08:50:59;;;;;;;30.63;14.77;;;;;;;26.31;26.22;101885.91;5073455;28;20395;-91
2022/03/23 08:53:26;;;;;;;26.98;14.73;;;;;;;26.04;27.12;101884.44;5073720;28;20470;-91
2022/03/23 08:55:52;;;;;;;21.38;13.48;;;;;;;26.81;26.71;101884.72;5074826;28;20497;-91
2022/03/23 08:58:17;;;;;;;18.08;12.80;;;;;;;26.47;26.63;101885.84;5074307;28;20021;-92
2022/03/23 09:00:42;;;;;;;22.70;14.55;;;;;;;26.48;25.52;101886.66;5074034;28;20029;-92
2022/03/23 09:03:08;;;;;;;23.80;14.05;;;;;;;26.44;25.98;101891.59;5074173;28;20501;-91
2022/03/23 09:05:33;;;;;;;18.17;12.63;;;;;;;26.22;26.47;101887.75;5072482;28;20433;-92
2022/03/23 09:08:01;;;;;;;21.55;13.25;;;;;;;26.63;26.31;101894.91;5072442;28;20024;-92
2022/03/23 09:10:27;;;;;;;18.67;12.93;;;;;;;25.91;26.39;101896.56;5073631;28;20034;-90
2022/03/23 09:12:52;;;;;;;17.52;12.95;;;;;;;26.74;25.44;101888.28;5074248;28;20020;-92
2022/03/23 09:15:19;;;;;;;19.08;13.63;;;;;;;27.13;25.29;101896.34;5073406;28;20032;-91
2022/03/23 09:17:45;;;;;;;22.52;14.27;;;;;;;26.69;25.57;101894.22;5073661;28;20600;-91
2022/03/23 09:20:12;;;;;;;29.20;15.52;;;;;;;26.44;26.00;101899.66;5073315;28;20411;-93
2022/03/23 09:22:41;;;;;;;20.70;13.93;;;;;;;27.19;26.00;101892.97;5073220;28;20024;-92
2022/03/23 09:25:10;;;;;;;17.15;14.25;;;;;;;27.48;24.94;101886.88;5072835;28;20489;-91
2022/03/23 09:27:38;;;;;;;19.85;15.15;;;;;;;27.06;25.28;101890.84;5072746;28;20059;-93
2022/03/23 09:30:05;;;;;;;22.63;12.35;;;;;;;27.97;25.59;101891.06;5072547;28;20020;-91
2022/03/23 09:32:32;;;;;;;22.95;15.05;;;;;;;28.05;25.10;101893.69;5071239;28;20031;-92
2022/03/23 09:34:57;;;;;;;19.10;13.85;;;;;;;27.94;24.98;101896.81;5072708;28;20024;-93
2022/03/23 09:40:07;;;;;;;24.17;13.63;;;;;;;27.79;24.91;101898.63;5072660;28;20152;-91
2022/03/23 09:42:34;;;;;;;20.45;13.98;;;;;;;28.29;24.57;101897.97;5072436;28;20039;-92
2022/03/23 09:44:59;;;;;;;18.85;13.52;;;;;;;28.11;24.52;101894.81;5072459;28;20021;-91
2022/03/23 09:47:25;;;;;;;21.48;13.60;;;;;;;28.45;23.96;101896.97;5072107;28;20383;-93
2022/03/23 09:49:51;;;;;;;18.00;12.98;;;;;;;28.41;24.42;101895.66;5072149;28;20157;-92
2022/03/23 09:52:17;;;;;;;24.88;13.70;;;;;;;28.49;24.35;101895.56;5072712;28;20024;-92
2022/03/23 09:54:45;;;;;;;19.20;14.20;;;;;;;28.62;24.62;101896.81;5072466;28;20024;-92
2022/03/23 09:57:13;;;;;;;24.92;13.52;;;;;;;28.62;24.48;101897.66;5072667;28;20025;-91
2022/03/23 09:59:39;;;;;;;15.93;12.80;;;;;;;28.66;24.63;101903.53;5071980;28;20359;-92
2022/03/23 10:02:25;;;;;;;18.40;13.25;;;;;;;28.47;24.11;101894.91;5072265;28;20024;-92
2022/03/23 10:05:09;;;;;;;19.42;13.45;;;;;;;28.40;24.21;101902.09;5071882;28;20020;-92
2022/03/23 10:08:16;;;;;;;20.08;13.13;;;;;;;28.62;23.56;101902.22;5072271;28;20100;-92
2022/03/23 10:11:00;;;;;;;19.23;12.68;;;;;;;28.49;23.35;101900.97;5056814;28;20158;-92
2022/03/23 10:13:54;;;;;;;23.48;13.30;;;;;;;28.10;24.18;101903.91;5072378;28;20032;-92
2022/03/23 10:16:57;;;;;;;17.60;13.77;;;;;;;27.41;24.30;101904.81;5061463;28;20128;-92
2022/03/23 10:19:22;;;;;;;15.90;12.05;;;;;;;27.89;24.27;101901.94;5070576;28;20028;-92
2022/03/23 10:21:49;;;;;;;18.00;12.48;;;;;;;28.15;23.95;101901.50;5074206;28;20036;-91
2022/03/23 10:24:14;;;;;;;18.08;13.07;;;;;;;28.19;23.81;101902.00;5076323;28;20035;-92
2022/03/23 10:26:43;;;;;;;17.35;11.90;;;;;;;28.44;24.32;101889.91;5075629;28;20029;-92
2022/03/23 10:29:23;;;;;;;15.05;11.27;;;;;;;28.74;22.71;101895.31;5075483;28;20060;-92
2022/03/23 10:32:05;;;;;;;15.37;11.47;;;;;;;28.92;23.33;101894.06;5075564;28;20078;-93
2022/03/23 10:34:47;;;;;;;;;;;;;;;28.59;23.35;101898.00;5076154;28;20292;-93
2022/03/23 10:37:14;;;;;;;40.83;14.00;;;;;;;29.13;23.43;101899.53;5075451;28;19912;-92
2022/03/23 10:39:40;;;;;;;16.42;11.15;;;;;;;29.26;22.89;101898.84;5074162;28;20027;-92
2022/03/23 10:42:09;;;;;;;14.43;10.75;;;;;;;28.95;22.58;101907.19;5075408;28;20099;-93
2022/03/23 10:44:35;;;;;;;16.25;10.75;;;;;;;28.68;22.01;101905.00;5075720;28;20020;-92
2022/03/23 10:47:01;;;;;;;16.20;11.00;;;;;;;29.11;22.62;101901.56;5075529;28;20021;-92
2022/03/23 10:49:35;;;;;;;15.43;11.13;;;;;;;29.55;22.43;101903.28;5075402;28;20475;-92
2022/03/23 10:52:28;;;;;;;18.27;10.50;;;;;;;29.67;22.69;101903.63;5075291;28;20149;-92
2022/03/23 10:54:59;;;;;;;387.30;47.25;;;;;;;29.53;22.32;101905.38;5074116;28;20039;-92
2022/03/23 10:57:43;;;;;;;644.60;102.13;;;;;;;29.39;23.25;101903.56;5074901;28;20058;-92
2022/03/23 11:00:16;;;;;;;24.00;13.15;;;;;;;29.21;22.64;101904.84;5074013;28;20025;-92
2022/03/23 11:02:48;;;;;;;14.40;10.13;;;;;;;30.12;22.31;101898.78;5075318;28;20040;-93
2022/03/23 11:05:33;;;;;;;14.88;9.90;;;;;;;30.29;21.43;101899.31;5073940;28;20031;-92
2022/03/23 11:08:10;;;;;;;14.10;9.75;;;;;;;30.08;21.59;101889.41;5075252;28;20020;-93
2022/03/23 11:16:12;;;;;;;13.68;9.88;;;;;;;29.37;22.65;101905.63;5075018;28;20027;-93
2022/03/23 11:18:38;;;;;;;16.38;9.45;;;;;;;30.17;22.30;101904.44;5074114;28;20032;-92
2022/03/23 11:21:04;;;;;;;16.10;10.15;;;;;;;30.00;21.68;101903.09;5075377;28;20028;-93
2022/03/23 11:23:33;;;;;;;14.60;10.50;;;;;;;29.49;22.34;101904.06;5074593;28;20025;-92
2022/03/23 11:26:01;;;;;;;16.67;9.48;;;;;;;29.72;22.25;101897.63;5074877;28;20486;-94
2022/03/23 11:28:28;;;;;;;15.30;9.65;;;;;;;29.68;21.68;101891.78;5073514;28;20029;-93
2022/03/23 11:30:55;;;;;;;13.98;9.00;;;;;;;29.81;20.86;101894.59;5074717;28;20024;-93
2022/03/23 11:33:23;;;;;;;15.73;10.38;;;;;;;30.03;21.04;101894.56;5072394;28;20470;-93